Stations météo

Publicité
Threave, Grande-Bretagne (99090): Température de l'air & dewpoint: 17.09.2018 14:00:00 - 23.09.2018 14:00:00 (BST)Threave, Grande-Bretagne (99090): Température de l'air -20cm & Température de l'air -100cm: 17.09.2018 14:00:00 - 23.09.2018 14:00:00 (BST)Threave, Grande-Bretagne (99090): Quantités de précipitations: 17.09.2018 14:00:00 - 23.09.2018 14:00:00 (BST)
Date & Time tt [°C] td [°C] tt -20cm [°C] tt -100cm [°C] rr [mm]
23.09.2018 14:00:00 11,5 4,4 - - 0,0
23.09.2018 13:00:00 12,6 6,2 - - 0,0
23.09.2018 12:00:00 11,4 5,5 - - 0,0
23.09.2018 11:00:00 10,6 7,5 - - 0,0
23.09.2018 10:00:00 7,3 7,3 13,2 13,7 0,0
23.09.2018 09:00:00 4,1 3,9 - - 0,0
23.09.2018 08:00:00 3,2 2,9 - - 0,0
23.09.2018 07:00:00 3,2 3,0 - - 0,0
23.09.2018 06:00:00 3,8 3,5 - - 0,0
23.09.2018 05:00:00 3,5 3,3 - - 0,0
23.09.2018 04:00:00 3,4 3,1 - - 0,0
23.09.2018 03:00:00 2,8 2,5 - - 0,0
23.09.2018 02:00:00 3,5 3,1 - - 0,0
23.09.2018 01:00:00 3,7 3,3 - - 0,0
23.09.2018 00:00:00 3,9 3,3 - - 0,0
22.09.2018 23:00:00 4,7 4,0 - - 0,0
22.09.2018 22:00:00 4,8 3,6 - - 0,0
22.09.2018 21:00:00 5,9 4,5 - - 0,0
22.09.2018 20:00:00 6,4 4,5 - - 0,0
22.09.2018 19:00:00 9,3 3,5 - - 0,0
22.09.2018 18:00:00 11,2 4,6 - - 0,0
22.09.2018 17:00:00 11,8 5,5 - - 0,2
22.09.2018 16:00:00 14,3 6,8 - - 0,0
22.09.2018 15:00:00 12,9 7,4 - - 0,8
22.09.2018 14:00:00 11,6 6,1 - - 0,0
22.09.2018 13:00:00 11,9 7,0 - - 0,0
22.09.2018 12:00:00 11,1 7,4 - - 0,0
22.09.2018 11:00:00 10,4 7,2 - - 0,0
22.09.2018 10:00:00 9,4 6,6 13,5 13,9 0,0
22.09.2018 09:00:00 8,4 5,9 - - 0,0
22.09.2018 08:00:00 7,8 5,6 - - 0,0
22.09.2018 07:00:00 7,6 5,2 - - 0,0
22.09.2018 06:00:00 7,6 5,2 - - 0,0
22.09.2018 05:00:00 7,6 5,3 - - 0,0
22.09.2018 04:00:00 7,7 5,0 - - 0,0
22.09.2018 03:00:00 7,5 4,8 - - 0,0
22.09.2018 02:00:00 7,5 4,9 - - 0,0
22.09.2018 01:00:00 7,8 5,4 - - 0,0
22.09.2018 00:00:00 7,9 5,9 - - 0,0
21.09.2018 23:00:00 7,6 6,0 - - 0,0
21.09.2018 22:00:00 8,1 6,2 - - 0,2
21.09.2018 21:00:00 8,7 6,8 - - 0,0
21.09.2018 20:00:00 9,4 6,1 - - 0,0
21.09.2018 19:00:00 10,2 6,2 - - 0,0
21.09.2018 18:00:00 11,9 6,5 - - 0,0
21.09.2018 17:00:00 12,4 7,1 - - 0,0
21.09.2018 16:00:00 12,4 8,3 - - 0,2
21.09.2018 15:00:00 11,0 7,8 - - 0,0
21.09.2018 14:00:00 12,0 6,9 - - 0,0
21.09.2018 13:00:00 11,7 8,1 - - 0,0
21.09.2018 12:00:00 10,7 7,4 - - 0,0
21.09.2018 11:00:00 9,5 6,3 - - 0,0
21.09.2018 10:00:00 10,0 6,7 13,7 14,0 0,0
21.09.2018 09:00:00 8,3 6,7 - - 0,0
21.09.2018 08:00:00 7,2 6,1 - - 0,4
21.09.2018 07:00:00 7,1 5,5 - - 0,0
21.09.2018 06:00:00 6,8 5,8 - - 0,0
21.09.2018 05:00:00 6,5 5,4 - - 0,0
21.09.2018 04:00:00 6,5 5,4 - - 0,2
21.09.2018 03:00:00 6,4 5,4 - - 0,6
21.09.2018 02:00:00 6,3 5,5 - - 2,2
21.09.2018 01:00:00 6,6 5,7 - - 1,6
21.09.2018 00:00:00 6,7 5,7 - - 1,2
20.09.2018 23:00:00 7,1 6,3 - - 0,2
20.09.2018 22:00:00 7,5 6,9 - - 1,0
20.09.2018 21:00:00 8,0 7,2 - - 1,8
20.09.2018 20:00:00 9,2 7,7 - - 1,2
20.09.2018 19:00:00 10,3 6,9 - - 0,0
20.09.2018 18:00:00 11,4 6,6 - - 0,0
20.09.2018 17:00:00 12,0 7,5 - - 0,0
20.09.2018 16:00:00 11,8 7,6 - - 0,0
20.09.2018 15:00:00 11,9 7,2 - - 0,0
20.09.2018 14:00:00 12,2 6,9 - - 0,0
20.09.2018 13:00:00 12,2 7,8 - - 0,0
20.09.2018 12:00:00 12,2 7,0 - - 0,0
20.09.2018 11:00:00 11,7 7,5 - - 0,0
20.09.2018 10:00:00 11,0 6,8 14,2 14,0 0,0
20.09.2018 09:00:00 10,6 7,7 - - 0,0
20.09.2018 08:00:00 8,9 6,6 - - 0,0
20.09.2018 07:00:00 9,0 6,3 - - 0,0
20.09.2018 06:00:00 8,1 5,9 - - 0,0
20.09.2018 05:00:00 8,8 6,2 - - 0,0
20.09.2018 04:00:00 9,8 6,3 - - 0,0
20.09.2018 03:00:00 10,0 6,5 - - 0,0
20.09.2018 02:00:00 10,7 6,3 - - 0,0
20.09.2018 01:00:00 10,7 5,9 - - 0,0
20.09.2018 00:00:00 11,4 6,4 - - 0,0
19.09.2018 23:00:00 10,9 5,2 - - 0,0
19.09.2018 22:00:00 11,5 6,0 - - 0,0
19.09.2018 21:00:00 11,2 5,7 - - 0,0
19.09.2018 20:00:00 11,4 5,7 - - 0,0
19.09.2018 19:00:00 11,9 4,9 - - 0,0
19.09.2018 18:00:00 11,3 4,5 - - 0,0
19.09.2018 17:00:00 12,7 4,6 - - 0,0
19.09.2018 16:00:00 13,3 6,4 - - 0,4
19.09.2018 15:00:00 12,3 8,7 - - 0,0
19.09.2018 14:00:00 13,4 7,8 - - 0,0
19.09.2018 13:00:00 13,8 7,2 - - 0,0
19.09.2018 12:00:00 15,3 10,0 - - 0,6
19.09.2018 11:00:00 15,7 13,0 - - 0,0
19.09.2018 10:00:00 15,0 12,8 14,7 14,2 0,2
19.09.2018 09:00:00 14,7 13,5 - - 4,0
19.09.2018 08:00:00 14,1 13,2 - - 6,8
19.09.2018 07:00:00 13,3 11,9 - - 1,2
19.09.2018 06:00:00 13,8 11,1 - - 0,0
19.09.2018 05:00:00 13,5 9,8 - - 0,0
19.09.2018 04:00:00 13,0 9,3 - - 0,0
19.09.2018 03:00:00 13,6 9,5 - - 0,0
19.09.2018 02:00:00 14,2 10,8 - - 0,0
19.09.2018 01:00:00 14,4 10,9 - - 0,0
19.09.2018 00:00:00 14,8 11,9 - - 0,0
18.09.2018 23:00:00 14,8 12,4 - - 0,0
18.09.2018 22:00:00 14,9 13,3 - - 0,0
18.09.2018 21:00:00 14,9 13,6 - - 0,0
18.09.2018 20:00:00 15,1 13,8 - - 0,0
18.09.2018 19:00:00 15,4 14,3 - - 0,6
18.09.2018 18:00:00 15,8 14,3 - - 0,0
18.09.2018 17:00:00 15,8 13,5 - - 0,0
18.09.2018 16:00:00 15,2 12,9 - - 0,0
18.09.2018 15:00:00 16,1 12,2 - - 0,0
18.09.2018 14:00:00 14,5 11,9 - - 0,0
18.09.2018 13:00:00 15,1 13,5 - - 0,0
18.09.2018 12:00:00 15,6 15,2 - - 0,6
18.09.2018 11:00:00 15,5 15,2 - - 0,0
18.09.2018 10:00:00 15,7 15,3 14,7 14,2 0,0
18.09.2018 09:00:00 15,8 15,5 - - 0,6
18.09.2018 08:00:00 15,0 14,6 - - 1,8
18.09.2018 07:00:00 14,5 14,1 - - 1,6
18.09.2018 06:00:00 14,1 13,4 - - 3,8
18.09.2018 05:00:00 14,6 13,2 - - 0,2
18.09.2018 04:00:00 16,0 12,7 - - 0,0
18.09.2018 03:00:00 15,6 13,4 - - 0,0
18.09.2018 02:00:00 16,0 13,8 - - 0,0
18.09.2018 01:00:00 16,5 13,1 - - 0,0
18.09.2018 00:00:00 16,6 12,7 - - 0,0
17.09.2018 23:00:00 16,6 12,9 - - 0,0
17.09.2018 22:00:00 16,4 13,7 - - 0,0
17.09.2018 21:00:00 16,6 14,9 - - 0,0
17.09.2018 20:00:00 16,7 15,0 - - 0,0
17.09.2018 19:00:00 16,5 15,0 - - 0,0
17.09.2018 18:00:00 16,5 15,2 - - 0,0
17.09.2018 17:00:00 16,6 15,6 - - 0,0
17.09.2018 16:00:00 15,8 15,5 - - 0,2
17.09.2018 15:00:00 15,0 14,4 - - 0,4
17.09.2018 14:00:00 14,1 13,3 - - 0,8

tt = Température de l'air
td = dewpoint
tt -20cm = Température de l'air -20cm
tt -100cm = Température de l'air -100cm
rr = Quantités de précipitations

stations d'obs. à proximité